Time;durP1;ratioP1;P1;durP2;ratioP2;P2;SDS_P1;SDS_P2;PMS_P1;PMS_P2;Temp;Humidity;BMP_temperature;BMP_pressure;BME280_temperature;BME280_humidity;BME280_pressure;Samples;Min_cycle;Max_cycle;Signal;HPM_P1;HPM_P2
2023/04/17 00:02:12;;;;;;;;;;;11.20;86.90;;;;;;5055961;28;19917;-87
2023/04/17 00:04:39;;;;;;;;;;;11.30;86.30;;;;;;5073991;28;19924;-87
2023/04/17 00:07:05;;;;;;;;;;;11.30;86.80;;;;;;5054386;28;19919;-88
2023/04/17 00:09:30;;;;;;;;;;;11.30;85.90;;;;;;5049994;28;19932;-87
2023/04/17 00:11:56;;;;;;;;;;;11.20;86.50;;;;;;5088881;28;20003;-88
2023/04/17 00:14:22;;;;;;;;;;;11.20;86.60;;;;;;5063564;28;19935;-87
2023/04/17 00:16:48;;;;;;;;;;;11.10;86.50;;;;;;5048311;28;19916;-87
2023/04/17 00:19:13;;;;;;;;;;;11.10;86.80;;;;;;5053927;28;19923;-88
2023/04/17 00:21:38;;;;;;;;;;;11.10;86.80;;;;;;5055574;28;20328;-87
2023/04/17 00:24:04;;;;;;;;;;;11.30;86.20;;;;;;5055582;28;19913;-88
2023/04/17 00:26:31;;;;;;;;;;;11.20;86.20;;;;;;5047177;28;19963;-88
2023/04/17 00:28:56;;;;;;;;;;;11.30;86.20;;;;;;5058967;28;19920;-88
2023/04/17 00:31:22;;;;;;;;;;;11.30;86.30;;;;;;5073045;28;20366;-87
2023/04/17 00:33:47;;;;;;;;;;;11.20;86.10;;;;;;5055199;28;20306;-88
2023/04/17 00:36:14;;;;;;;;;;;11.20;86.00;;;;;;5045150;28;19909;-88
2023/04/17 00:38:39;;;;;;;;;;;11.20;85.70;;;;;;5062343;28;19970;-88
2023/04/17 00:41:10;;;;;;;;;;;11.20;86.10;;;;;;5048841;28;20394;-87
2023/04/17 00:43:36;;;;;;;;;;;11.30;85.40;;;;;;5074448;28;19946;-88
2023/04/17 00:46:03;;;;;;;;;;;11.20;85.30;;;;;;5058773;28;19912;-88
2023/04/17 00:48:28;;;;;;;;;;;11.10;85.60;;;;;;5066506;28;19913;-87
2023/04/17 00:50:54;;;;;;;;;;;11.00;86.00;;;;;;5055676;28;19965;-87
2023/04/17 00:53:19;;;;;;;;;;;10.90;86.30;;;;;;5070993;28;20060;-86
2023/04/17 00:55:46;;;;;;;;;;;10.90;86.50;;;;;;5064269;28;19917;-88
2023/04/17 00:58:12;;;;;;;;;;;10.90;86.40;;;;;;5045916;28;19919;-87
2023/04/17 01:00:37;;;;;;;;;;;10.90;86.20;;;;;;5054859;28;19909;-88
2023/04/17 01:03:03;;;;;;;;;;;10.80;86.30;;;;;;5072088;28;19952;-88
2023/04/17 01:05:28;;;;;;;;;;;10.80;86.90;;;;;;5070977;28;19990;-87
2023/04/17 01:07:55;;;;;;;;;;;10.80;86.90;;;;;;5041676;28;19920;-87
2023/04/17 01:10:21;;;;;;;;;;;10.80;86.60;;;;;;5072047;28;19913;-88
2023/04/17 01:12:50;;;;;;;;;;;10.80;86.80;;;;;;5054578;28;19915;-87
2023/04/17 01:15:15;;;;;;;;;;;10.70;86.80;;;;;;5050307;28;20378;-88
2023/04/17 01:17:41;;;;;;;;;;;10.70;87.10;;;;;;5066969;28;20107;-87
2023/04/17 01:20:09;;;;;;;;;;;10.80;86.60;;;;;;5046712;28;19909;-88
2023/04/17 01:22:35;;;;;;;;;;;10.70;86.70;;;;;;5055435;28;20370;-87
2023/04/17 01:25:00;;;;;;;;;;;10.70;87.00;;;;;;5052949;28;19917;-87
2023/04/17 01:27:26;;;;;;;;;;;11.00;86.20;;;;;;5054158;28;20288;-87
2023/04/17 01:29:51;;;;;;;;;;;10.90;85.50;;;;;;5053891;28;19919;-88
2023/04/17 01:32:17;;;;;;;;;;;10.80;86.30;;;;;;5054314;28;20052;-88
2023/04/17 01:34:42;;;;;;;;;;;10.70;86.00;;;;;;5070910;28;19913;-88
2023/04/17 01:37:08;;;;;;;;;;;10.70;86.30;;;;;;5063734;28;19958;-87
2023/04/17 01:39:34;;;;;;;;;;;10.60;86.10;;;;;;5054332;28;19935;-88
2023/04/17 01:41:59;;;;;;;;;;;10.60;86.10;;;;;;5054320;28;19922;-88
2023/04/17 01:44:25;;;;;;;;;;;10.60;86.20;;;;;;5047538;28;19983;-88
2023/04/17 01:46:50;;;;;;;;;;;10.60;86.30;;;;;;5060462;28;19913;-88
2023/04/17 01:49:16;;;;;;;;;;;10.60;86.60;;;;;;5062729;28;20242;-87
2023/04/17 01:51:41;;;;;;;;;;;10.50;86.60;;;;;;5054541;28;19916;-88
2023/04/17 01:54:07;;;;;;;;;;;10.50;86.40;;;;;;5070777;28;19955;-87
2023/04/17 01:56:32;;;;;;;;;;;10.50;86.60;;;;;;5062178;28;20007;-87
2023/04/17 01:58:58;;;;;;;;;;;10.40;87.00;;;;;;5033965;28;19954;-87
2023/04/17 02:01:23;;;;;;;;;;;10.50;86.60;;;;;;5064141;28;19970;-87
2023/04/17 02:03:49;;;;;;;;;;;10.50;86.60;;;;;;5045808;28;20366;-88
2023/04/17 02:06:14;;;;;;;;;;;10.50;86.90;;;;;;5057058;28;19927;-87
2023/04/17 02:08:40;;;;;;;;;;;10.40;86.60;;;;;;5058485;28;19908;-88
2023/04/17 02:11:05;;;;;;;;;;;10.40;86.80;;;;;;5056972;28;20456;-87
2023/04/17 02:13:30;;;;;;;;;;;10.40;86.70;;;;;;5070311;28;20366;-87
2023/04/17 02:15:56;;;;;;;;;;;10.30;86.40;;;;;;5053938;28;20289;-87
2023/04/17 02:18:22;;;;;;;;;;;10.30;86.30;;;;;;5057280;28;20374;-87
2023/04/17 02:20:47;;;;;;;;;;;10.40;85.80;;;;;;5057487;28;19914;-88
2023/04/17 02:23:13;;;;;;;;;;;10.30;86.10;;;;;;5056395;28;19919;-87
2023/04/17 02:25:38;;;;;;;;;;;10.30;85.80;;;;;;5044375;28;19913;-87
2023/04/17 02:28:04;;;;;;;;;;;10.30;85.80;;;;;;5056709;28;20362;-88
2023/04/17 02:30:30;;;;;;;;;;;10.30;85.30;;;;;;5037032;28;20395;-88
2023/04/17 02:32:55;;;;;;;;;;;10.30;85.50;;;;;;5073745;28;19913;-88
2023/04/17 02:35:21;;;;;;;;;;;10.20;85.30;;;;;;5067212;28;19908;-88
2023/04/17 02:37:47;;;;;;;;;;;10.10;85.60;;;;;;5075282;28;19909;-88
2023/04/17 02:40:13;;;;;;;;;;;10.10;85.70;;;;;;5056358;28;20417;-88
2023/04/17 02:42:38;;;;;;;;;;;10.10;85.70;;;;;;5074523;28;19912;-88
2023/04/17 02:45:04;;;;;;;;;;;10.10;85.60;;;;;;5055729;28;20062;-87
2023/04/17 02:47:30;;;;;;;;;;;10.10;85.70;;;;;;5082996;28;20325;-88
2023/04/17 02:49:55;;;;;;;;;;;10.10;85.50;;;;;;5064501;28;20289;-88
2023/04/17 02:52:21;;;;;;;;;;;10.10;85.20;;;;;;5056683;28;19966;-87
2023/04/17 02:54:47;;;;;;;;;;;10.00;85.30;;;;;;5069931;22;20436;-87
2023/04/17 02:57:12;;;;;;;;;;;10.00;85.00;;;;;;5049007;28;19950;-85
2023/04/17 02:59:37;;;;;;;;;;;10.00;85.70;;;;;;5047370;28;20360;-83
2023/04/17 03:02:04;;;;;;;;;;;10.00;85.20;;;;;;5052846;28;19913;-85
2023/04/17 03:04:29;;;;;;;;;;;10.00;85.60;;;;;;5053255;28;19916;-85
2023/04/17 03:06:55;;;;;;;;;;;10.00;85.20;;;;;;5053006;28;19913;-84
2023/04/17 03:09:21;;;;;;;;;;;10.00;85.60;;;;;;5053358;28;19909;-85
2023/04/17 03:11:47;;;;;;;;;;;10.00;85.20;;;;;;5053460;28;19920;-85
2023/04/17 03:14:12;;;;;;;;;;;9.90;85.70;;;;;;5052358;28;19923;-85
2023/04/17 03:16:38;;;;;;;;;;;10.00;85.70;;;;;;5053791;28;19917;-85
2023/04/17 03:19:03;;;;;;;;;;;9.90;85.70;;;;;;5052246;28;19916;-85
2023/04/17 03:21:30;;;;;;;;;;;10.00;86.00;;;;;;5053475;28;19920;-85
2023/04/17 03:23:55;;;;;;;;;;;10.00;86.00;;;;;;5053538;28;19913;-84
2023/04/17 03:26:21;;;;;;;;;;;9.90;85.80;;;;;;5048821;28;19935;-84
2023/04/17 03:28:46;;;;;;;;;;;9.90;85.80;;;;;;5051598;28;19951;-83
2023/04/17 03:31:11;;;;;;;;;;;10.00;85.70;;;;;;5057488;28;19917;-84
2023/04/17 03:33:37;;;;;;;;;;;10.00;85.90;;;;;;5051976;28;19996;-84
2023/04/17 03:36:03;;;;;;;;;;;10.00;85.70;;;;;;5054353;28;19960;-85
2023/04/17 03:38:28;;;;;;;;;;;10.10;85.40;;;;;;5054405;28;19920;-85
2023/04/17 03:40:54;;;;;;;;;;;10.00;85.20;;;;;;5052998;28;20028;-85
2023/04/17 03:43:19;;;;;;;;;;;10.00;85.00;;;;;;5051807;28;19913;-84
2023/04/17 03:45:45;;;;;;;;;;;10.00;84.90;;;;;;5061483;28;19932;-84
2023/04/17 03:48:10;;;;;;;;;;;10.10;84.30;;;;;;5066931;28;19909;-85
2023/04/17 03:50:36;;;;;;;;;;;10.00;84.90;;;;;;5047184;28;20003;-84
2023/04/17 03:53:01;;;;;;;;;;;9.90;84.60;;;;;;5052040;28;20313;-83
2023/04/17 03:55:26;;;;;;;;;;;9.80;85.20;;;;;;5037413;28;19947;-84
2023/04/17 03:57:52;;;;;;;;;;;9.80;85.20;;;;;;5053385;28;19912;-84
2023/04/17 04:00:18;;;;;;;;;;;9.70;85.20;;;;;;5050915;28;19963;-85
2023/04/17 04:02:43;;;;;;;;;;;9.80;85.40;;;;;;5052340;28;19913;-84
2023/04/17 04:05:09;;;;;;;;;;;9.80;85.00;;;;;;5051017;28;19917;-84
2023/04/17 04:07:34;;;;;;;;;;;9.80;85.20;;;;;;5051980;28;19913;-85
2023/04/17 04:10:00;;;;;;;;;;;9.70;85.30;;;;;;5050879;28;19913;-84
2023/04/17 04:12:25;;;;;;;;;;;9.70;85.40;;;;;;5051242;28;19913;-84
2023/04/17 04:14:51;;;;;;;;;;;9.70;85.50;;;;;;5052875;28;20353;-84
2023/04/17 04:17:16;;;;;;;;;;;9.70;85.00;;;;;;5056716;28;19912;-84
2023/04/17 04:19:42;;;;;;;;;;;9.60;85.20;;;;;;5050330;28;20003;-84
2023/04/17 04:22:09;;;;;;;;;;;9.60;85.20;;;;;;5048590;28;19913;-86
2023/04/17 04:24:34;;;;;;;;;;;9.60;85.40;;;;;;5048299;28;19931;-85
2023/04/17 04:27:09;;;;;;;;;;;9.60;85.40;;;;;;5049462;28;20396;-85
2023/04/17 04:29:36;;;;;;;;;;;9.60;85.50;;;;;;5051480;28;19960;-84
2023/04/17 04:32:02;;;;;;;;;;;9.70;85.20;;;;;;5050742;28;19920;-84
2023/04/17 04:34:28;;;;;;;;;;;9.60;85.10;;;;;;5053254;28;19970;-85
2023/04/17 04:36:57;;;;;;;;;;;9.60;85.40;;;;;;5073735;28;19916;-84
2023/04/17 04:39:23;;;;;;;;;;;9.70;85.50;;;;;;5073793;28;19919;-83
2023/04/17 04:41:49;;;;;;;;;;;9.60;85.10;;;;;;5062912;28;19909;-84
2023/04/17 04:44:15;;;;;;;;;;;9.60;84.90;;;;;;5068615;28;19911;-85
2023/04/17 04:46:40;;;;;;;;;;;9.60;85.00;;;;;;5071031;28;19908;-85
2023/04/17 04:49:05;;;;;;;;;;;9.50;85.10;;;;;;5064520;28;19917;-85
2023/04/17 04:51:32;;;;;;;;;;;9.50;85.70;;;;;;5059996;28;19947;-84
2023/04/17 04:53:58;;;;;;;;;;;9.60;85.80;;;;;;5056590;28;20427;-85
2023/04/17 04:56:23;;;;;;;;;;;9.60;85.60;;;;;;5051659;28;20020;-89
2023/04/17 04:58:49;;;;;;;;;;;9.60;85.40;;;;;;5054007;28;19936;-86
2023/04/17 05:01:16;;;;;;;;;;;9.60;85.50;;;;;;5050974;28;19919;-86
2023/04/17 05:03:43;;;;;;;;;;;9.80;85.10;;;;;;5048201;28;19912;-90
2023/04/17 05:06:10;;;;;;;;;;;9.60;85.10;;;;;;5041054;28;19909;-89
2023/04/17 05:08:38;;;;;;;;;;;9.70;85.40;;;;;;5051260;28;20321;-86
2023/04/17 05:11:08;;;;;;;;;;;9.80;85.40;;;;;;5051918;28;19913;-87
2023/04/17 05:13:33;;;;;;;;;;;9.70;85.10;;;;;;5048357;28;19913;-86
2023/04/17 05:15:59;;;;;;;;;;;9.70;85.10;;;;;;5051556;28;19909;-88
2023/04/17 05:18:25;;;;;;;;;;;9.70;85.10;;;;;;5034058;28;19928;-87
2023/04/17 05:20:50;;;;;;;;;;;9.70;85.00;;;;;;5048015;28;19919;-86
2023/04/17 05:23:16;;;;;;;;;;;9.70;85.70;;;;;;5049965;28;19982;-87
2023/04/17 05:25:42;;;;;;;;;;;9.70;85.60;;;;;;5044633;28;20008;-88
2023/04/17 05:28:07;;;;;;;;;;;9.70;85.70;;;;;;5051374;28;20406;-86
2023/04/17 05:30:33;;;;;;;;;;;9.80;85.30;;;;;;5048715;28;19917;-84
2023/04/17 05:32:59;;;;;;;;;;;9.70;84.90;;;;;;5051883;28;20003;-82
2023/04/17 05:35:26;;;;;;;;;;;9.90;84.80;;;;;;5049245;28;20086;-83
2023/04/17 05:37:52;;;;;;;;;;;9.70;84.50;;;;;;5051422;28;19917;-85
2023/04/17 05:40:17;;;;;;;;;;;9.60;84.70;;;;;;5051886;28;20012;-83
2023/04/17 05:42:43;;;;;;;;;;;9.70;84.60;;;;;;5044904;28;19944;-84
2023/04/17 05:45:12;;;;;;;;;;;9.70;84.30;;;;;;5057052;28;20293;-83
2023/04/17 05:47:37;;;;;;;;;;;9.70;84.40;;;;;;5055611;28;20011;-86
2023/04/17 05:50:03;;;;;;;;;;;9.70;84.20;;;;;;5058754;28;20369;-87
2023/04/17 05:52:29;;;;;;;;;;;9.60;84.60;;;;;;5054514;28;19908;-86
2023/04/17 05:54:55;;;;;;;;;;;9.60;84.40;;;;;;5054301;28;19908;-86
2023/04/17 05:57:20;;;;;;;;;;;9.60;84.80;;;;;;5055751;28;19999;-86
2023/04/17 05:59:46;;;;;;;;;;;9.70;84.90;;;;;;5053878;28;19979;-87
2023/04/17 06:02:11;;;;;;;;;;;9.80;85.10;;;;;;5054172;28;19913;-86
2023/04/17 06:04:37;;;;;;;;;;;9.70;84.30;;;;;;5053999;28;20325;-87
2023/04/17 06:07:06;;;;;;;;;;;9.70;84.60;;;;;;5060118;28;20322;-86
2023/04/17 06:09:32;;;;;;;;;;;9.80;84.20;;;;;;5054859;28;20398;-86
2023/04/17 06:11:58;;;;;;;;;;;9.90;84.00;;;;;;5056007;28;19909;-86
2023/04/17 06:14:24;;;;;;;;;;;9.90;83.80;;;;;;5052794;28;19913;-86
2023/04/17 06:16:50;;;;;;;;;;;9.80;84.00;;;;;;5053099;28;19974;-87
2023/04/17 06:19:15;;;;;;;;;;;9.80;84.30;;;;;;5053871;28;20393;-86
2023/04/17 06:21:40;;;;;;;;;;;9.90;84.30;;;;;;5053877;28;20383;-87
2023/04/17 06:24:06;;;;;;;;;;;10.00;83.90;;;;;;5054310;28;19913;-86
2023/04/17 06:26:32;;;;;;;;;;;10.00;83.40;;;;;;5052552;28;19916;-86
2023/04/17 06:28:57;;;;;;;;;;;9.90;83.70;;;;;;5053620;28;19915;-86
2023/04/17 06:31:22;;;;;;;;;;;9.90;84.10;;;;;;5054280;28;20016;-86
2023/04/17 06:33:49;;;;;;;;;;;9.90;83.60;;;;;;5059220;28;19909;-87
2023/04/17 06:36:15;;;;;;;;;;;9.80;84.10;;;;;;5055575;28;19923;-86
2023/04/17 06:38:40;;;;;;;;;;;9.80;84.00;;;;;;5057740;28;19912;-86
2023/04/17 06:41:06;;;;;;;;;;;9.80;84.30;;;;;;5054450;28;19909;-86
2023/04/17 06:43:31;;;;;;;;;;;9.90;84.10;;;;;;5054698;28;20054;-87
2023/04/17 06:45:57;;;;;;;;;;;9.90;83.70;;;;;;5053246;28;19924;-86
2023/04/17 06:48:22;;;;;;;;;;;9.80;84.00;;;;;;5055154;28;20027;-86
2023/04/17 06:50:48;;;;;;;;;;;10.00;83.70;;;;;;5053671;28;19913;-86
2023/04/17 06:53:13;;;;;;;;;;;10.00;83.80;;;;;;5053169;28;20019;-86
2023/04/17 06:55:42;;;;;;;;;;;10.00;83.30;;;;;;5052378;28;19928;-87
2023/04/17 06:58:08;;;;;;;;;;;10.10;83.30;;;;;;5053113;28;20047;-86
2023/04/17 07:00:33;;;;;;;;;;;10.10;83.10;;;;;;5052873;28;19975;-86
2023/04/17 07:02:59;;;;;;;;;;;10.00;83.30;;;;;;5053686;28;19916;-86
2023/04/17 07:05:24;;;;;;;;;;;10.00;83.20;;;;;;5053704;28;20324;-86
2023/04/17 07:07:50;;;;;;;;;;;10.10;83.50;;;;;;5053476;28;20389;-86
2023/04/17 07:10:18;;;;;;;;;;;10.00;83.70;;;;;;5053796;28;19954;-85
2023/04/17 07:12:44;;;;;;;;;;;10.00;83.80;;;;;;5054522;28;20003;-86
2023/04/17 07:15:09;;;;;;;;;;;10.00;84.10;;;;;;5052977;28;19909;-86
2023/04/17 07:17:35;;;;;;;;;;;10.00;84.10;;;;;;5053380;28;19962;-86
2023/04/17 07:20:00;;;;;;;;;;;10.20;83.30;;;;;;5068775;28;19971;-87
2023/04/17 07:22:28;;;;;;;;;;;10.20;82.90;;;;;;5069218;28;19936;-87
2023/04/17 07:24:54;;;;;;;;;;;10.10;83.20;;;;;;5053046;28;19913;-87
2023/04/17 07:27:20;;;;;;;;;;;10.20;83.30;;;;;;5052833;28;19909;-87
2023/04/17 07:29:51;;;;;;;;;;;10.20;83.20;;;;;;5053123;28;19913;-86
2023/04/17 07:32:17;;;;;;;;;;;10.30;83.50;;;;;;5055486;28;19915;-87
2023/04/17 07:34:42;;;;;;;;;;;10.50;82.70;;;;;;5070037;28;19959;-86
2023/04/17 07:37:08;;;;;;;;;;;10.60;83.00;;;;;;5056892;28;19963;-86
2023/04/17 07:39:33;;;;;;;;;;;10.50;83.40;;;;;;5053019;28;19909;-86
2023/04/17 07:42:01;;;;;;;;;;;10.60;83.30;;;;;;5054402;28;19908;-86
2023/04/17 07:44:27;;;;;;;;;;;10.60;83.20;;;;;;5043899;28;19921;-85
2023/04/17 07:46:52;;;;;;;;;;;10.80;82.10;;;;;;5049062;28;19919;-86
2023/04/17 07:49:18;;;;;;;;;;;10.70;82.30;;;;;;5053870;28;20442;-86
2023/04/17 07:51:43;;;;;;;;;;;10.70;81.40;;;;;;5048859;28;19912;-86
2023/04/17 07:54:09;;;;;;;;;;;10.80;80.90;;;;;;5052571;28;19913;-87
2023/04/17 07:56:35;;;;;;;;;;;10.70;81.40;;;;;;5048968;28;19970;-86
2023/04/17 07:59:01;;;;;;;;;;;10.90;81.20;;;;;;5052019;28;19912;-87
2023/04/17 08:01:30;;;;;;;;;;;11.00;81.60;;;;;;5053783;28;19976;-86
2023/04/17 08:04:01;;;;;;;;;;;11.00;82.20;;;;;;5052004;28;19974;-86
2023/04/17 08:06:27;;;;;;;;;;;11.10;81.30;;;;;;5050916;28;19962;-86
2023/04/17 08:08:53;;;;;;;;;;;11.20;80.10;;;;;;5052394;28;19999;-88
2023/04/17 08:11:18;;;;;;;;;;;11.20;79.80;;;;;;5048643;28;19986;-86
2023/04/17 08:13:44;;;;;;;;;;;11.20;80.30;;;;;;5051784;28;20362;-88
2023/04/17 08:16:09;;;;;;;;;;;11.40;79.80;;;;;;5051999;28;20343;-88
2023/04/17 08:18:36;;;;;;;;;;;11.50;80.00;;;;;;5046094;28;19983;-88
2023/04/17 08:21:02;;;;;;;;;;;11.60;78.50;;;;;;5032198;28;19956;-87
2023/04/17 08:23:30;;;;;;;;;;;11.60;78.10;;;;;;5041974;28;19920;-87
2023/04/17 08:25:57;;;;;;;;;;;11.60;78.50;;;;;;5055671;28;19982;-87
2023/04/17 08:28:23;;;;;;;;;;;11.50;79.40;;;;;;5054566;28;20424;-86
2023/04/17 08:30:48;;;;;;;;;;;11.50;79.60;;;;;;5053909;28;20340;-86
2023/04/17 08:33:15;;;;;;;;;;;11.70;79.50;;;;;;5053494;28;19913;-88
2023/04/17 08:35:41;;;;;;;;;;;11.70;77.40;;;;;;5051092;28;19913;-88
2023/04/17 08:38:09;;;;;;;;;;;11.80;76.40;;;;;;5052768;28;19958;-86
2023/04/17 08:40:34;;;;;;;;;;;11.80;75.80;;;;;;5049988;28;19913;-85
2023/04/17 08:43:00;;;;;;;;;;;11.70;76.30;;;;;;5062688;28;19971;-87
2023/04/17 08:45:26;;;;;;;;;;;11.60;76.10;;;;;;5060917;28;19928;-85
2023/04/17 08:47:54;;;;;;;;;;;11.60;75.60;;;;;;5053631;28;19909;-85
2023/04/17 08:50:20;;;;;;;;;;;11.60;77.60;;;;;;5051770;28;20422;-87
2023/04/17 08:52:47;;;;;;;;;;;11.60;78.30;;;;;;5052546;28;19951;-88
2023/04/17 08:55:16;;;;;;;;;;;11.80;76.00;;;;;;5070517;22;19983;-88
2023/04/17 08:57:55;;;;;;;;;;;11.90;73.90;;;;;;5041015;28;19980;-87
2023/04/17 09:00:30;;;;;;;;;;;11.90;72.40;;;;;;5039093;28;20583;-87
2023/04/17 09:02:57;;;;;;;;;;;11.70;71.50;;;;;;5033577;28;19909;-87
2023/04/17 09:05:23;;;;;;;;;;;11.70;73.80;;;;;;5047347;28;19913;-88
2023/04/17 09:07:49;;;;;;;;;;;11.90;70.90;;;;;;5033812;28;19909;-88
2023/04/17 09:10:15;;;;;;;;;;;12.00;72.00;;;;;;5042636;28;19920;-87
2023/04/17 09:12:56;;;;;;;;;;;12.00;73.30;;;;;;5054616;28;19913;-91
2023/04/17 09:15:22;;;;;;;;;;;12.10;69.50;;;;;;5074001;28;19913;-90
2023/04/17 09:17:47;;;;;;;;;;;12.30;68.90;;;;;;5062993;28;19913;-88
2023/04/17 09:20:13;;;;;;;;;;;12.40;67.80;;;;;;5051052;28;20022;-89
2023/04/17 09:22:39;;;;;;;;;;;12.40;66.20;;;;;;5051489;28;19999;-87
2023/04/17 09:25:15;;;;;;;;;;;12.30;65.50;;;;;;5052745;28;19913;-86
2023/04/17 09:27:41;;;;;;;;;;;12.20;66.40;;;;;;5050849;28;19919;-87
2023/04/17 09:30:06;;;;;;;;;;;12.30;69.40;;;;;;5052585;28;20384;-87
2023/04/17 09:32:32;;;;;;;;;;;12.40;69.50;;;;;;5052645;28;19912;-87
2023/04/17 09:34:59;;;;;;;;;;;12.30;66.20;;;;;;5051119;28;19955;-87
2023/04/17 09:37:26;;;;;;;;;;;12.30;65.70;;;;;;5051670;28;20179;-88
2023/04/17 09:39:56;;;;;;;;;;;12.30;65.90;;;;;;5051704;28;19966;-87
2023/04/17 09:42:22;;;;;;;;;;;12.30;66.70;;;;;;5057644;28;19913;-86
2023/04/17 09:44:48;;;;;;;;;;;12.30;65.30;;;;;;5061178;28;19969;-86
2023/04/17 09:47:15;;;;;;;;;;;12.40;67.10;;;;;;5052882;28;19949;-86
2023/04/17 09:49:51;;;;;;;;;;;12.40;66.70;;;;;;5051577;28;20384;-86
2023/04/17 09:52:23;;;;;;;;;;;12.50;67.50;;;;;;5051714;28;20003;-87
2023/04/17 09:54:52;;;;;;;;;;;12.60;67.90;;;;;;5050945;28;19920;-86
2023/04/17 09:57:18;;;;;;;;;;;12.60;67.30;;;;;;5052095;28;19923;-86
2023/04/17 09:59:44;;;;;;;;;;;12.80;68.60;;;;;;5055367;28;19909;-85
2023/04/17 10:02:13;;;;;;;;;;;13.00;68.40;;;;;;5074250;28;19913;-86
2023/04/17 10:04:40;;;;;;;;;;;13.10;66.80;;;;;;5053150;28;19956;-87
2023/04/17 10:07:06;;;;;;;;;;;13.20;67.30;;;;;;5052309;28;19921;-87
2023/04/17 10:09:31;;;;;;;;;;;13.20;66.20;;;;;;5051363;28;19916;-87
2023/04/17 10:11:57;;;;;;;;;;;13.30;64.50;;;;;;5051262;28;20433;-87
2023/04/17 10:14:23;;;;;;;;;;;13.10;66.90;;;;;;5050465;28;19951;-87
2023/04/17 10:16:49;;;;;;;;;;;13.10;66.10;;;;;;5053246;28;19952;-87
2023/04/17 10:19:24;;;;;;;;;;;13.20;64.60;;;;;;5051604;28;19909;-86
2023/04/17 10:22:08;;;;;;;;;;;13.10;65.50;;;;;;5051440;28;19909;-86
2023/04/17 10:24:34;;;;;;;;;;;13.10;65.10;;;;;;5051411;28;19917;-86
2023/04/17 10:27:00;;;;;;;;;;;13.00;67.90;;;;;;5046122;28;20387;-87
2023/04/17 10:29:44;;;;;;;;;;;13.20;67.80;;;;;;5034794;28;19909;-87
2023/04/17 10:32:09;;;;;;;;;;;13.30;66.50;;;;;;5034712;28;19916;-87
2023/04/17 10:34:36;;;;;;;;;;;13.40;65.60;;;;;;5034534;28;19909;-87
2023/04/17 10:37:02;;;;;;;;;;;13.60;64.80;;;;;;5035337;28;19913;-87
2023/04/17 10:39:46;;;;;;;;;;;13.80;65.30;;;;;;5042317;28;19913;-86
2023/04/17 10:42:16;;;;;;;;;;;13.90;65.30;;;;;;5072881;28;19968;-86
2023/04/17 10:44:43;;;;;;;;;;;14.00;63.20;;;;;;5066740;28;19943;-85
2023/04/17 10:47:09;;;;;;;;;;;14.10;64.60;;;;;;5053455;28;19935;-85
2023/04/17 10:49:48;;;;;;;;;;;14.10;61.50;;;;;;5051443;28;20367;-85
2023/04/17 10:52:33;;;;;;;;;;;14.10;59.90;;;;;;5057715;28;19995;-85
2023/04/17 10:55:08;;;;;;;;;;;13.70;61.60;;;;;;5056183;28;19919;-85
2023/04/17 10:57:53;;;;;;;;;;;13.60;60.90;;;;;;5045395;28;20020;-86
2023/04/17 11:00:20;;;;;;;;;;;13.50;62.50;;;;;;5056893;28;19967;-85
2023/04/17 11:02:49;;;;;;;;;;;13.50;63.40;;;;;;5061590;28;19913;-87
2023/04/17 11:05:15;;;;;;;;;;;13.50;62.40;;;;;;5052498;28;19916;-87
2023/04/17 11:07:42;;;;;;;;;;;13.60;62.30;;;;;;5052295;28;19913;-86
2023/04/17 11:10:08;;;;;;;;;;;13.70;60.70;;;;;;5060222;28;19923;-87
2023/04/17 11:12:34;;;;;;;;;;;13.80;60.70;;;;;;5059879;28;19920;-88
2023/04/17 11:15:02;;;;;;;;;;;13.80;60.30;;;;;;5053164;28;19916;-88
2023/04/17 11:17:28;;;;;;;;;;;13.80;59.00;;;;;;5054257;28;19909;-89
2023/04/17 11:19:54;;;;;;;;;;;13.80;60.10;;;;;;5053743;28;20355;-88
2023/04/17 11:22:20;;;;;;;;;;;13.80;61.10;;;;;;5053607;28;20558;-89
2023/04/17 11:24:49;;;;;;;;;;;14.00;59.30;;;;;;5047976;28;19968;-88
2023/04/17 11:27:14;;;;;;;;;;;14.00;59.20;;;;;;5037442;28;19914;-89
2023/04/17 11:29:40;;;;;;;;;;;14.20;57.20;;;;;;5038303;28;19919;-88
2023/04/17 11:32:09;;;;;;;;;;;14.40;57.70;;;;;;5035716;28;19916;-88
2023/04/17 11:34:35;;;;;;;;;;;14.30;57.90;;;;;;5053552;28;20306;-88
2023/04/17 11:37:01;;;;;;;;;;;14.20;57.90;;;;;;5055444;28;19912;-88
2023/04/17 11:39:31;;;;;;;;;;;13.90;57.20;;;;;;5054458;28;19908;-88
2023/04/17 11:41:57;;;;;;;;;;;14.00;59.30;;;;;;5055228;28;19999;-88
2023/04/17 11:44:28;;;;;;;;;;;14.30;57.80;;;;;;5056250;28;20420;-89
2023/04/17 11:46:54;;;;;;;;;;;14.40;57.70;;;;;;5055635;28;19909;-88
2023/04/17 11:49:29;;;;;;;;;;;14.20;56.90;;;;;;5056610;28;19913;-88
2023/04/17 11:51:57;;;;;;;;;;;14.20;57.50;;;;;;5055951;28;19909;-88
2023/04/17 11:54:26;;;;;;;;;;;14.20;56.00;;;;;;5055236;28;19908;-88
2023/04/17 11:57:07;;;;;;;;;;;14.10;55.60;;;;;;5056438;28;19948;-88
2023/04/17 11:59:38;;;;;;;;;;;14.10;56.80;;;;;;5056744;28;19995;-88
2023/04/17 12:02:13;;;;;;;;;;;14.10;55.60;;;;;;5046609;28;19909;-87
2023/04/17 12:04:39;;;;;;;;;;;13.80;58.00;;;;;;5034162;28;20012;-88
2023/04/17 12:07:05;;;;;;;;;;;14.00;56.90;;;;;;5034367;28;20465;-88
2023/04/17 12:09:31;;;;;;;;;;;14.00;56.40;;;;;;5035078;28;19913;-88
2023/04/17 12:12:01;;;;;;;;;;;14.00;57.00;;;;;;5036309;28;19981;-88
2023/04/17 12:14:30;;;;;;;;;;;13.90;57.50;;;;;;5035977;28;19976;-88
2023/04/17 12:16:55;;;;;;;;;;;13.90;58.70;;;;;;5036432;28;19909;-88
2023/04/17 12:19:21;;;;;;;;;;;14.10;57.80;;;;;;5035886;28;19913;-87
2023/04/17 12:21:51;;;;;;;;;;;14.10;58.30;;;;;;5036010;28;19913;-87
2023/04/17 12:24:23;;;;;;;;;;;14.10;57.20;;;;;;5035676;28;19917;-88
2023/04/17 12:26:49;;;;;;;;;;;14.40;58.90;;;;;;5034193;28;19949;-87
2023/04/17 12:29:18;;;;;;;;;;;14.40;56.40;;;;;;5034012;28;19964;-87
2023/04/17 12:31:47;;;;;;;;;;;14.60;55.60;;;;;;5034647;28;20278;-88
2023/04/17 12:34:25;;;;;;;;;;;;;;;;;;;;;
2023/04/17 12:36:51;;;;;;;;;;;14.50;55.80;;;;;;5039576;28;19981;-88
2023/04/17 12:39:21;;;;;;;;;;;14.40;56.80;;;;;;5038421;28;19949;-87
2023/04/17 12:41:48;;;;;;;;;;;14.40;56.10;;;;;;5035540;28;20462;-87
2023/04/17 12:44:13;;;;;;;;;;;14.60;53.70;;;;;;5033365;28;19913;-89
2023/04/17 12:46:39;;;;;;;;;;;14.70;51.90;;;;;;5036965;28;19916;-88
2023/04/17 12:49:04;;;;;;;;;;;14.80;53.40;;;;;;5063839;28;19920;-89
2023/04/17 12:51:36;;;;;;;;;;;14.80;53.70;;;;;;5056653;28;19994;-89
2023/04/17 12:54:01;;;;;;;;;;;15.10;55.60;;;;;;5054549;28;19920;-88
2023/04/17 12:56:27;;;;;;;;;;;15.10;53.50;;;;;;5053242;28;19917;-88
2023/04/17 12:58:53;;;;;;;;;;;15.30;51.90;;;;;;5053992;28;20335;-88
2023/04/17 13:01:18;;;;;;;;;;;15.00;55.30;;;;;;5054260;28;19913;-88
2023/04/17 13:03:44;;;;;;;;;;;14.80;53.00;;;;;;5052979;28;19909;-89
2023/04/17 13:06:09;;;;;;;;;;;14.80;51.30;;;;;;5051752;28;19923;-88
2023/04/17 13:08:35;;;;;;;;;;;14.80;52.00;;;;;;5053616;28;19956;-88
2023/04/17 13:11:02;;;;;;;;;;;14.50;53.50;;;;;;5053373;28;19919;-88
2023/04/17 13:13:28;;;;;;;;;;;14.60;52.80;;;;;;5054464;28;19909;-88
2023/04/17 13:15:53;;;;;;;;;;;14.60;53.60;;;;;;5054105;28;20055;-89
2023/04/17 13:18:19;;;;;;;;;;;14.80;50.50;;;;;;5053053;28;19952;-89
2023/04/17 13:20:44;;;;;;;;;;;14.80;50.10;;;;;;5054217;28;19942;-88
2023/04/17 13:23:10;;;;;;;;;;;15.00;49.80;;;;;;5053762;28;20388;-88
2023/04/17 13:25:36;;;;;;;;;;;15.00;49.90;;;;;;5059080;28;20390;-88
2023/04/17 13:28:02;;;;;;;;;;;15.30;49.00;;;;;;5061482;28;20207;-88
2023/04/17 13:30:28;;;;;;;;;;;15.60;48.20;;;;;;5054475;28;19908;-89
2023/04/17 13:32:56;;;;;;;;;;;15.50;47.90;;;;;;5058049;28;19909;-88
2023/04/17 13:35:21;;;;;;;;;;;15.50;50.70;;;;;;5055956;28;19909;-89
2023/04/17 13:37:47;;;;;;;;;;;15.40;49.80;;;;;;5053777;28;19909;-89
2023/04/17 13:40:12;;;;;;;;;;;15.10;51.60;;;;;;5052509;28;19999;-88
2023/04/17 13:42:38;;;;;;;;;;;15.20;48.10;;;;;;5052301;28;19908;-89
2023/04/17 13:45:03;;;;;;;;;;;15.40;47.80;;;;;;5052990;28;19912;-89
2023/04/17 13:47:29;;;;;;;;;;;15.40;48.20;;;;;;5052780;28;19909;-87
2023/04/17 13:49:55;;;;;;;;;;;15.40;47.80;;;;;;5052214;28;19916;-87
2023/04/17 13:52:20;;;;;;;;;;;15.40;48.70;;;;;;5051481;28;19909;-87
2023/04/17 13:54:46;;;;;;;;;;;15.10;49.10;;;;;;5051898;28;20377;-89
2023/04/17 13:57:13;;;;;;;;;;;15.10;48.00;;;;;;5039180;28;19929;-87
2023/04/17 13:59:39;;;;;;;;;;;15.00;48.10;;;;;;5031421;28;19910;-87
2023/04/17 14:02:04;;;;;;;;;;;15.00;48.20;;;;;;5032032;28;20325;-87
2023/04/17 14:04:30;;;;;;;;;;;14.80;48.50;;;;;;5034157;28;19963;-87
2023/04/17 14:06:56;;;;;;;;;;;14.80;49.50;;;;;;5036213;28;19917;-87
2023/04/17 14:09:21;;;;;;;;;;;14.80;49.60;;;;;;5036889;28;19909;-87
2023/04/17 14:11:47;;;;;;;;;;;14.70;49.90;;;;;;5049463;28;19893;-88
2023/04/17 14:14:12;;;;;;;;;;;15.00;49.20;;;;;;5055593;28;19917;-88
2023/04/17 14:16:42;;;;;;;;;;;15.00;49.90;;;;;;5049182;28;19909;-87
2023/04/17 14:19:07;;;;;;;;;;;15.30;48.80;;;;;;5043142;28;19915;-88